sensor_id;sensor_type;location;lat;lon;timestamp;temperature;humidity
5476;DHT22;2760;50.000;9.194;2023-09-18T00:00:24;20.30;99.90
5476;DHT22;2760;50.000;9.194;2023-09-18T00:02:51;20.30;99.90
5476;DHT22;2760;50.000;9.194;2023-09-18T00:05:18;20.40;99.90
5476;DHT22;2760;50.000;9.194;2023-09-18T00:07:46;20.20;99.90
5476;DHT22;2760;50.000;9.194;2023-09-18T00:10:13;20.30;99.90
5476;DHT22;2760;50.000;9.194;2023-09-18T00:12:40;20.30;99.90
5476;DHT22;2760;50.000;9.194;2023-09-18T00:15:08;20.30;99.90
5476;DHT22;2760;50.000;9.194;2023-09-18T00:17:35;20.20;99.90
5476;DHT22;2760;50.000;9.194;2023-09-18T00:20:03;20.30;99.90
5476;DHT22;2760;50.000;9.194;2023-09-18T00:22:32;20.30;99.90
5476;DHT22;2760;50.000;9.194;2023-09-18T00:25:00;20.30;99.90
5476;DHT22;2760;50.000;9.194;2023-09-18T00:27:28;20.40;99.90
5476;DHT22;2760;50.000;9.194;2023-09-18T00:29:55;20.30;99.90
5476;DHT22;2760;50.000;9.194;2023-09-18T00:32:22;20.30;99.90
5476;DHT22;2760;50.000;9.194;2023-09-18T00:34:49;20.30;99.90
5476;DHT22;2760;50.000;9.194;2023-09-18T00:37:16;20.30;99.90
5476;DHT22;2760;50.000;9.194;2023-09-18T00:39:43;20.40;99.90
5476;DHT22;2760;50.000;9.194;2023-09-18T00:42:12;20.20;99.90
5476;DHT22;2760;50.000;9.194;2023-09-18T00:44:39;20.20;99.90
5476;DHT22;2760;50.000;9.194;2023-09-18T00:47:07;20.10;99.90
5476;DHT22;2760;50.000;9.194;2023-09-18T00:49:35;20.20;99.90
5476;DHT22;2760;50.000;9.194;2023-09-18T00:52:04;20.00;99.90
5476;DHT22;2760;50.000;9.194;2023-09-18T00:54:33;20.10;99.90
5476;DHT22;2760;50.000;9.194;2023-09-18T00:57:01;19.90;99.90
5476;DHT22;2760;50.000;9.194;2023-09-18T00:59:31;20.00;99.90
5476;DHT22;2760;50.000;9.194;2023-09-18T01:01:59;19.90;99.90
5476;DHT22;2760;50.000;9.194;2023-09-18T01:04:26;20.00;99.90
5476;DHT22;2760;50.000;9.194;2023-09-18T01:06:55;20.00;99.90
5476;DHT22;2760;50.000;9.194;2023-09-18T01:09:24;20.00;99.90
5476;DHT22;2760;50.000;9.194;2023-09-18T01:11:58;19.90;99.90
5476;DHT22;2760;50.000;9.194;2023-09-18T01:14:35;19.90;99.90
5476;DHT22;2760;50.000;9.194;2023-09-18T01:17:05;20.00;99.90
5476;DHT22;2760;50.000;9.194;2023-09-18T01:19:41;20.10;99.90
5476;DHT22;2760;50.000;9.194;2023-09-18T01:22:13;20.10;99.90
5476;DHT22;2760;50.000;9.194;2023-09-18T01:24:41;20.10;99.90
5476;DHT22;2760;50.000;9.194;2023-09-18T01:27:10;20.10;99.90
5476;DHT22;2760;50.000;9.194;2023-09-18T01:29:38;20.20;99.90
5476;DHT22;2760;50.000;9.194;2023-09-18T01:32:05;20.10;99.90
5476;DHT22;2760;50.000;9.194;2023-09-18T01:34:35;20.20;99.90
5476;DHT22;2760;50.000;9.194;2023-09-18T01:37:06;20.00;99.90
5476;DHT22;2760;50.000;9.194;2023-09-18T01:39:35;20.10;99.90
5476;DHT22;2760;50.000;9.194;2023-09-18T01:42:04;20.10;99.90
5476;DHT22;2760;50.000;9.194;2023-09-18T01:44:32;20.10;99.90
5476;DHT22;2760;50.000;9.194;2023-09-18T01:47:02;20.20;99.90
5476;DHT22;2760;50.000;9.194;2023-09-18T01:49:32;20.20;99.90
5476;DHT22;2760;50.000;9.194;2023-09-18T01:51:59;20.20;99.90
5476;DHT22;2760;50.000;9.194;2023-09-18T01:54:26;20.30;99.90
5476;DHT22;2760;50.000;9.194;2023-09-18T01:56:53;20.30;99.90
5476;DHT22;2760;50.000;9.194;2023-09-18T01:59:22;20.40;99.90
5476;DHT22;2760;50.000;9.194;2023-09-18T02:01:50;20.60;99.90
5476;DHT22;2760;50.000;9.194;2023-09-18T02:04:17;20.60;99.90
5476;DHT22;2760;50.000;9.194;2023-09-18T02:06:45;20.80;99.90
5476;DHT22;2760;50.000;9.194;2023-09-18T02:09:12;20.80;99.90
5476;DHT22;2760;50.000;9.194;2023-09-18T02:11:41;20.70;99.90
5476;DHT22;2760;50.000;9.194;2023-09-18T02:14:09;20.80;99.90
5476;DHT22;2760;50.000;9.194;2023-09-18T02:16:39;20.70;99.90
5476;DHT22;2760;50.000;9.194;2023-09-18T02:19:07;20.70;99.90
5476;DHT22;2760;50.000;9.194;2023-09-18T02:21:35;20.70;99.90
5476;DHT22;2760;50.000;9.194;2023-09-18T02:24:03;20.80;99.90
5476;DHT22;2760;50.000;9.194;2023-09-18T02:26:30;20.90;99.90
5476;DHT22;2760;50.000;9.194;2023-09-18T02:29:03;20.90;99.90
5476;DHT22;2760;50.000;9.194;2023-09-18T02:31:30;21.00;99.90
5476;DHT22;2760;50.000;9.194;2023-09-18T02:34:00;21.20;99.90
5476;DHT22;2760;50.000;9.194;2023-09-18T02:36:26;21.20;99.90
5476;DHT22;2760;50.000;9.194;2023-09-18T02:38:53;21.30;99.90
5476;DHT22;2760;50.000;9.194;2023-09-18T02:41:20;21.30;99.90
5476;DHT22;2760;50.000;9.194;2023-09-18T02:43:47;21.30;99.90
5476;DHT22;2760;50.000;9.194;2023-09-18T02:46:16;21.40;99.90
5476;DHT22;2760;50.000;9.194;2023-09-18T02:48:43;21.50;99.90
5476;DHT22;2760;50.000;9.194;2023-09-18T02:51:11;21.50;99.90
5476;DHT22;2760;50.000;9.194;2023-09-18T02:53:38;21.60;99.90
5476;DHT22;2760;50.000;9.194;2023-09-18T02:56:05;21.50;99.90
5476;DHT22;2760;50.000;9.194;2023-09-18T02:58:33;21.30;99.90
5476;DHT22;2760;50.000;9.194;2023-09-18T03:01:00;21.20;99.90
5476;DHT22;2760;50.000;9.194;2023-09-18T03:03:31;21.10;99.90
5476;DHT22;2760;50.000;9.194;2023-09-18T03:06:02;21.10;99.90
5476;DHT22;2760;50.000;9.194;2023-09-18T03:08:31;21.00;99.90
5476;DHT22;2760;50.000;9.194;2023-09-18T03:10:59;21.10;99.90
5476;DHT22;2760;50.000;9.194;2023-09-18T03:13:27;20.90;99.90
5476;DHT22;2760;50.000;9.194;2023-09-18T03:15:54;20.70;99.90
5476;DHT22;2760;50.000;9.194;2023-09-18T03:18:22;20.70;99.90
5476;DHT22;2760;50.000;9.194;2023-09-18T03:20:49;20.60;99.90
5476;DHT22;2760;50.000;9.194;2023-09-18T03:23:16;20.50;99.90
5476;DHT22;2760;50.000;9.194;2023-09-18T03:25:45;20.50;99.90
5476;DHT22;2760;50.000;9.194;2023-09-18T03:28:12;20.50;99.90
5476;DHT22;2760;50.000;9.194;2023-09-18T03:30:39;20.50;99.90
5476;DHT22;2760;50.000;9.194;2023-09-18T03:33:06;20.50;99.90
5476;DHT22;2760;50.000;9.194;2023-09-18T03:35:45;19.10;99.90
5476;DHT22;2760;50.000;9.194;2023-09-18T03:38:12;20.30;99.90
5476;DHT22;2760;50.000;9.194;2023-09-18T03:40:39;20.30;99.90
5476;DHT22;2760;50.000;9.194;2023-09-18T03:45:35;20.20;99.90
5476;DHT22;2760;50.000;9.194;2023-09-18T03:48:03;20.20;99.90
5476;DHT22;2760;50.000;9.194;2023-09-18T03:50:30;20.20;99.90
5476;DHT22;2760;50.000;9.194;2023-09-18T03:52:57;20.20;99.90
5476;DHT22;2760;50.000;9.194;2023-09-18T03:55:24;20.00;99.90
5476;DHT22;2760;50.000;9.194;2023-09-18T03:57:52;20.00;99.90
5476;DHT22;2760;50.000;9.194;2023-09-18T04:00:21;20.00;99.90
5476;DHT22;2760;50.000;9.194;2023-09-18T04:02:48;20.00;99.90
5476;DHT22;2760;50.000;9.194;2023-09-18T04:05:15;19.90;99.90
5476;DHT22;2760;50.000;9.194;2023-09-18T04:07:42;19.80;99.90
5476;DHT22;2760;50.000;9.194;2023-09-18T04:10:12;19.80;99.90
5476;DHT22;2760;50.000;9.194;2023-09-18T04:12:44;19.80;99.90
5476;DHT22;2760;50.000;9.194;2023-09-18T04:15:14;19.80;99.90
5476;DHT22;2760;50.000;9.194;2023-09-18T04:17:42;19.90;99.90
5476;DHT22;2760;50.000;9.194;2023-09-18T04:20:10;19.80;99.90
5476;DHT22;2760;50.000;9.194;2023-09-18T04:22:43;20.00;99.90
5476;DHT22;2760;50.000;9.194;2023-09-18T04:25:10;20.00;99.90
5476;DHT22;2760;50.000;9.194;2023-09-18T04:27:38;20.10;99.90
5476;DHT22;2760;50.000;9.194;2023-09-18T04:30:06;20.10;99.90
5476;DHT22;2760;50.000;9.194;2023-09-18T04:32:35;20.20;99.90
5476;DHT22;2760;50.000;9.194;2023-09-18T04:35:04;20.00;99.90
5476;DHT22;2760;50.000;9.194;2023-09-18T04:37:36;20.10;99.90
5476;DHT22;2760;50.000;9.194;2023-09-18T04:40:05;20.10;99.90
5476;DHT22;2760;50.000;9.194;2023-09-18T04:42:35;20.10;99.90
5476;DHT22;2760;50.000;9.194;2023-09-18T04:45:04;20.20;99.90
5476;DHT22;2760;50.000;9.194;2023-09-18T04:47:32;20.30;99.90
5476;DHT22;2760;50.000;9.194;2023-09-18T04:49:59;20.30;99.90
5476;DHT22;2760;50.000;9.194;2023-09-18T04:52:28;20.20;99.90
5476;DHT22;2760;50.000;9.194;2023-09-18T04:54:55;20.30;99.90
5476;DHT22;2760;50.000;9.194;2023-09-18T04:57:23;20.30;99.90
5476;DHT22;2760;50.000;9.194;2023-09-18T04:59:51;20.30;99.90
5476;DHT22;2760;50.000;9.194;2023-09-18T05:02:18;20.40;99.90
5476;DHT22;2760;50.000;9.194;2023-09-18T05:04:45;20.40;99.90
5476;DHT22;2760;50.000;9.194;2023-09-18T05:07:12;20.40;99.90
5476;DHT22;2760;50.000;9.194;2023-09-18T05:09:41;20.30;99.90
5476;DHT22;2760;50.000;9.194;2023-09-18T05:12:09;20.10;99.90
5476;DHT22;2760;50.000;9.194;2023-09-18T05:14:39;20.10;99.90
5476;DHT22;2760;50.000;9.194;2023-09-18T05:17:08;19.90;99.90
5476;DHT22;2760;50.000;9.194;2023-09-18T05:19:35;20.00;99.90
5476;DHT22;2760;50.000;9.194;2023-09-18T05:22:02;19.90;99.90
5476;DHT22;2760;50.000;9.194;2023-09-18T05:24:29;19.90;99.90
5476;DHT22;2760;50.000;9.194;2023-09-18T05:26:58;20.10;99.90
5476;DHT22;2760;50.000;9.194;2023-09-18T05:29:25;20.10;99.90
5476;DHT22;2760;50.000;9.194;2023-09-18T05:31:51;20.00;99.90
5476;DHT22;2760;50.000;9.194;2023-09-18T05:34:18;20.10;99.90
5476;DHT22;2760;50.000;9.194;2023-09-18T05:36:45;18.60;99.90
5476;DHT22;2760;50.000;9.194;2023-09-18T05:39:12;20.00;99.90
5476;DHT22;2760;50.000;9.194;2023-09-18T05:41:40;20.20;99.90
5476;DHT22;2760;50.000;9.194;2023-09-18T05:44:08;20.10;99.90
5476;DHT22;2760;50.000;9.194;2023-09-18T05:46:36;20.10;99.90
5476;DHT22;2760;50.000;9.194;2023-09-18T05:49:03;20.20;99.90
5476;DHT22;2760;50.000;9.194;2023-09-18T05:51:30;20.20;99.90
5476;DHT22;2760;50.000;9.194;2023-09-18T05:53:58;20.30;99.90
5476;DHT22;2760;50.000;9.194;2023-09-18T05:56:26;20.40;99.90
5476;DHT22;2760;50.000;9.194;2023-09-18T05:58:53;20.50;99.90
5476;DHT22;2760;50.000;9.194;2023-09-18T06:01:22;20.40;99.90
5476;DHT22;2760;50.000;9.194;2023-09-18T06:03:49;20.30;99.90
5476;DHT22;2760;50.000;9.194;2023-09-18T06:06:16;20.40;99.90
5476;DHT22;2760;50.000;9.194;2023-09-18T06:08:43;20.50;99.90
5476;DHT22;2760;50.000;9.194;2023-09-18T06:11:10;20.50;99.90
5476;DHT22;2760;50.000;9.194;2023-09-18T06:13:37;20.60;99.90
5476;DHT22;2760;50.000;9.194;2023-09-18T06:16:05;20.60;99.90
5476;DHT22;2760;50.000;9.194;2023-09-18T06:18:35;20.60;99.90
5476;DHT22;2760;50.000;9.194;2023-09-18T06:21:03;20.70;99.90
5476;DHT22;2760;50.000;9.194;2023-09-18T06:23:30;20.70;99.90
5476;DHT22;2760;50.000;9.194;2023-09-18T06:25:58;20.70;99.90
5476;DHT22;2760;50.000;9.194;2023-09-18T06:28:25;20.70;99.90
5476;DHT22;2760;50.000;9.194;2023-09-18T06:30:52;20.80;99.90
5476;DHT22;2760;50.000;9.194;2023-09-18T06:33:19;20.80;99.90
5476;DHT22;2760;50.000;9.194;2023-09-18T06:35:47;20.80;99.90
5476;DHT22;2760;50.000;9.194;2023-09-18T06:38:14;20.90;99.90
5476;DHT22;2760;50.000;9.194;2023-09-18T06:40:41;20.80;99.90
5476;DHT22;2760;50.000;9.194;2023-09-18T06:43:08;20.90;99.90
5476;DHT22;2760;50.000;9.194;2023-09-18T06:45:35;20.90;99.90
5476;DHT22;2760;50.000;9.194;2023-09-18T06:48:04;21.00;99.90
5476;DHT22;2760;50.000;9.194;2023-09-18T06:50:31;21.10;99.90
5476;DHT22;2760;50.000;9.194;2023-09-18T06:53:00;21.10;99.90
5476;DHT22;2760;50.000;9.194;2023-09-18T06:55:27;21.10;99.90
5476;DHT22;2760;50.000;9.194;2023-09-18T06:57:54;21.30;99.90
5476;DHT22;2760;50.000;9.194;2023-09-18T07:00:21;21.30;99.90
5476;DHT22;2760;50.000;9.194;2023-09-18T07:02:48;21.40;99.90
5476;DHT22;2760;50.000;9.194;2023-09-18T07:05:16;21.60;99.90
5476;DHT22;2760;50.000;9.194;2023-09-18T07:07:43;21.60;99.90
5476;DHT22;2760;50.000;9.194;2023-09-18T07:10:11;21.70;99.90
5476;DHT22;2760;50.000;9.194;2023-09-18T07:12:38;21.80;99.90
5476;DHT22;2760;50.000;9.194;2023-09-18T07:15:06;19.90;99.90
5476;DHT22;2760;50.000;9.194;2023-09-18T07:17:34;21.80;99.90
5476;DHT22;2760;50.000;9.194;2023-09-18T07:20:02;21.80;99.90
5476;DHT22;2760;50.000;9.194;2023-09-18T07:22:39;21.70;99.90
5476;DHT22;2760;50.000;9.194;2023-09-18T07:25:06;21.60;99.90
5476;DHT22;2760;50.000;9.194;2023-09-18T07:27:35;21.70;99.90
5476;DHT22;2760;50.000;9.194;2023-09-18T07:30:06;21.80;99.90
5476;DHT22;2760;50.000;9.194;2023-09-18T07:32:33;21.70;99.90
5476;DHT22;2760;50.000;9.194;2023-09-18T07:35:00;21.70;99.90
5476;DHT22;2760;50.000;9.194;2023-09-18T07:37:27;21.70;99.90
5476;DHT22;2760;50.000;9.194;2023-09-18T07:39:54;21.80;99.90
5476;DHT22;2760;50.000;9.194;2023-09-18T07:42:24;21.90;99.90
5476;DHT22;2760;50.000;9.194;2023-09-18T07:44:52;21.70;99.90
5476;DHT22;2760;50.000;9.194;2023-09-18T07:47:20;21.90;99.90
5476;DHT22;2760;50.000;9.194;2023-09-18T07:49:48;21.90;99.90
5476;DHT22;2760;50.000;9.194;2023-09-18T07:52:16;22.00;99.90
5476;DHT22;2760;50.000;9.194;2023-09-18T07:54:43;22.30;99.90
5476;DHT22;2760;50.000;9.194;2023-09-18T07:57:10;22.40;99.90
5476;DHT22;2760;50.000;9.194;2023-09-18T07:59:37;22.40;99.90
5476;DHT22;2760;50.000;9.194;2023-09-18T08:02:06;22.60;99.90
5476;DHT22;2760;50.000;9.194;2023-09-18T08:04:34;22.50;99.90
5476;DHT22;2760;50.000;9.194;2023-09-18T08:07:01;22.70;99.90
5476;DHT22;2760;50.000;9.194;2023-09-18T08:09:31;22.60;99.90
5476;DHT22;2760;50.000;9.194;2023-09-18T08:12:02;22.70;99.90
5476;DHT22;2760;50.000;9.194;2023-09-18T08:14:29;22.50;99.90
5476;DHT22;2760;50.000;9.194;2023-09-18T08:16:56;22.40;99.90
5476;DHT22;2760;50.000;9.194;2023-09-18T08:19:25;22.50;99.90
5476;DHT22;2760;50.000;9.194;2023-09-18T08:21:53;22.60;99.90
5476;DHT22;2760;50.000;9.194;2023-09-18T08:24:22;22.60;99.90
5476;DHT22;2760;50.000;9.194;2023-09-18T08:26:49;22.60;99.90
5476;DHT22;2760;50.000;9.194;2023-09-18T08:29:17;22.60;99.90
5476;DHT22;2760;50.000;9.194;2023-09-18T08:31:44;20.40;99.90
5476;DHT22;2760;50.000;9.194;2023-09-18T08:34:11;22.80;99.90
5476;DHT22;2760;50.000;9.194;2023-09-18T08:36:39;22.80;99.90
5476;DHT22;2760;50.000;9.194;2023-09-18T08:39:06;22.90;99.90
5476;DHT22;2760;50.000;9.194;2023-09-18T08:41:38;22.80;99.90
5476;DHT22;2760;50.000;9.194;2023-09-18T08:44:08;23.00;99.90
5476;DHT22;2760;50.000;9.194;2023-09-18T08:46:36;23.10;99.90
5476;DHT22;2760;50.000;9.194;2023-09-18T08:49:04;23.00;99.90
5476;DHT22;2760;50.000;9.194;2023-09-18T08:51:33;22.90;99.90
5476;DHT22;2760;50.000;9.194;2023-09-18T08:54:02;22.90;99.90
5476;DHT22;2760;50.000;9.194;2023-09-18T08:56:31;23.10;99.90
5476;DHT22;2760;50.000;9.194;2023-09-18T08:58:59;23.10;99.90
5476;DHT22;2760;50.000;9.194;2023-09-18T09:01:26;23.10;99.90
5476;DHT22;2760;50.000;9.194;2023-09-18T09:03:53;23.10;99.90
5476;DHT22;2760;50.000;9.194;2023-09-18T09:06:21;22.90;99.90
5476;DHT22;2760;50.000;9.194;2023-09-18T09:08:48;23.00;99.90
5476;DHT22;2760;50.000;9.194;2023-09-18T09:11:17;22.90;99.90
5476;DHT22;2760;50.000;9.194;2023-09-18T09:13:46;23.10;99.90
5476;DHT22;2760;50.000;9.194;2023-09-18T09:16:17;22.80;99.90
5476;DHT22;2760;50.000;9.194;2023-09-18T09:18:48;23.20;99.90
5476;DHT22;2760;50.000;9.194;2023-09-18T09:21:16;23.30;99.90
5476;DHT22;2760;50.000;9.194;2023-09-18T09:23:47;23.30;99.90
5476;DHT22;2760;50.000;9.194;2023-09-18T09:26:19;23.10;99.90
5476;DHT22;2760;50.000;9.194;2023-09-18T09:28:47;23.00;99.90
5476;DHT22;2760;50.000;9.194;2023-09-18T09:31:24;22.90;99.90
5476;DHT22;2760;50.000;9.194;2023-09-18T09:33:54;23.10;99.90
5476;DHT22;2760;50.000;9.194;2023-09-18T09:36:23;23.20;99.90
5476;DHT22;2760;50.000;9.194;2023-09-18T09:38:54;23.80;99.90
5476;DHT22;2760;50.000;9.194;2023-09-18T09:41:23;23.10;99.90
5476;DHT22;2760;50.000;9.194;2023-09-18T09:43:51;23.00;99.90
5476;DHT22;2760;50.000;9.194;2023-09-18T09:46:21;23.10;99.90
5476;DHT22;2760;50.000;9.194;2023-09-18T09:49:00;23.20;99.90
5476;DHT22;2760;50.000;9.194;2023-09-18T09:51:27;23.30;99.90
5476;DHT22;2760;50.000;9.194;2023-09-18T09:53:55;23.30;99.90
5476;DHT22;2760;50.000;9.194;2023-09-18T09:56:40;23.30;99.90
5476;DHT22;2760;50.000;9.194;2023-09-18T09:59:06;23.30;99.90
5476;DHT22;2760;50.000;9.194;2023-09-18T10:01:35;23.30;99.90
5476;DHT22;2760;50.000;9.194;2023-09-18T10:04:05;23.30;99.90
5476;DHT22;2760;50.000;9.194;2023-09-18T10:06:34;23.30;99.90
5476;DHT22;2760;50.000;9.194;2023-09-18T10:09:02;23.30;99.90
5476;DHT22;2760;50.000;9.194;2023-09-18T10:11:31;23.20;99.90
5476;DHT22;2760;50.000;9.194;2023-09-18T10:14:07;23.30;99.90
5476;DHT22;2760;50.000;9.194;2023-09-18T10:16:37;23.40;99.90
5476;DHT22;2760;50.000;9.194;2023-09-18T10:19:10;23.30;99.90
5476;DHT22;2760;50.000;9.194;2023-09-18T10:21:47;23.30;99.90
5476;DHT22;2760;50.000;9.194;2023-09-18T10:24:19;23.20;99.90
5476;DHT22;2760;50.000;9.194;2023-09-18T10:26:53;23.10;99.90
5476;DHT22;2760;50.000;9.194;2023-09-18T10:29:24;23.10;99.90
5476;DHT22;2760;50.000;9.194;2023-09-18T10:31:52;23.10;99.90
5476;DHT22;2760;50.000;9.194;2023-09-18T10:34:20;23.20;99.90
5476;DHT22;2760;50.000;9.194;2023-09-18T10:36:49;23.20;99.90
5476;DHT22;2760;50.000;9.194;2023-09-18T10:39:16;23.20;99.90
5476;DHT22;2760;50.000;9.194;2023-09-18T10:41:47;23.20;99.90
5476;DHT22;2760;50.000;9.194;2023-09-18T10:44:16;23.20;99.90
5476;DHT22;2760;50.000;9.194;2023-09-18T10:46:44;23.00;99.90
5476;DHT22;2760;50.000;9.194;2023-09-18T10:49:12;23.10;99.90
5476;DHT22;2760;50.000;9.194;2023-09-18T10:51:39;22.90;99.90
5476;DHT22;2760;50.000;9.194;2023-09-18T10:54:08;22.90;99.90
5476;DHT22;2760;50.000;9.194;2023-09-18T10:56:35;22.80;99.90
5476;DHT22;2760;50.000;9.194;2023-09-18T10:59:06;22.80;99.90
5476;DHT22;2760;50.000;9.194;2023-09-18T11:01:35;22.90;99.90
5476;DHT22;2760;50.000;9.194;2023-09-18T11:04:06;22.80;99.90
5476;DHT22;2760;50.000;9.194;2023-09-18T11:07:01;22.80;99.90
5476;DHT22;2760;50.000;9.194;2023-09-18T11:09:30;22.70;99.90
5476;DHT22;2760;50.000;9.194;2023-09-18T11:12:02;22.60;99.90
5476;DHT22;2760;50.000;9.194;2023-09-18T11:14:42;22.50;99.90
5476;DHT22;2760;50.000;9.194;2023-09-18T11:17:28;22.70;99.90
5476;DHT22;2760;50.000;9.194;2023-09-18T11:20:07;22.80;99.90
5476;DHT22;2760;50.000;9.194;2023-09-18T11:22:39;22.60;99.90
5476;DHT22;2760;50.000;9.194;2023-09-18T11:25:29;22.60;99.90
5476;DHT22;2760;50.000;9.194;2023-09-18T11:28:00;22.70;99.90
5476;DHT22;2760;50.000;9.194;2023-09-18T11:30:27;22.90;99.90
5476;DHT22;2760;50.000;9.194;2023-09-18T11:32:55;23.00;99.90
5476;DHT22;2760;50.000;9.194;2023-09-18T11:35:25;23.10;99.90
5476;DHT22;2760;50.000;9.194;2023-09-18T11:38:06;23.10;99.90
5476;DHT22;2760;50.000;9.194;2023-09-18T11:40:35;23.30;99.90
5476;DHT22;2760;50.000;9.194;2023-09-18T11:43:24;23.20;99.90
5476;DHT22;2760;50.000;9.194;2023-09-18T11:45:57;23.20;99.90
5476;DHT22;2760;50.000;9.194;2023-09-18T11:48:25;23.40;99.90
5476;DHT22;2760;50.000;9.194;2023-09-18T11:50:58;23.50;99.90
5476;DHT22;2760;50.000;9.194;2023-09-18T11:53:29;23.40;99.90
5476;DHT22;2760;50.000;9.194;2023-09-18T11:56:04;23.50;99.90
5476;DHT22;2760;50.000;9.194;2023-09-18T11:58:44;23.40;99.90
5476;DHT22;2760;50.000;9.194;2023-09-18T12:01:14;23.40;99.90
5476;DHT22;2760;50.000;9.194;2023-09-18T12:03:42;23.40;99.90
5476;DHT22;2760;50.000;9.194;2023-09-18T12:06:11;23.60;99.90
5476;DHT22;2760;50.000;9.194;2023-09-18T12:08:40;22.20;99.90
5476;DHT22;2760;50.000;9.194;2023-09-18T12:11:07;23.60;99.90
5476;DHT22;2760;50.000;9.194;2023-09-18T12:13:34;23.90;99.90
5476;DHT22;2760;50.000;9.194;2023-09-18T12:16:03;24.00;99.90
5476;DHT22;2760;50.000;9.194;2023-09-18T12:18:32;24.00;99.90
5476;DHT22;2760;50.000;9.194;2023-09-18T12:21:01;23.80;99.90
5476;DHT22;2760;50.000;9.194;2023-09-18T12:23:38;23.70;99.90
5476;DHT22;2760;50.000;9.194;2023-09-18T12:26:06;23.70;99.90
5476;DHT22;2760;50.000;9.194;2023-09-18T12:28:35;23.50;99.90
5476;DHT22;2760;50.000;9.194;2023-09-18T12:31:03;23.40;99.90
5476;DHT22;2760;50.000;9.194;2023-09-18T12:33:37;23.40;99.90
5476;DHT22;2760;50.000;9.194;2023-09-18T12:36:05;23.40;99.90
5476;DHT22;2760;50.000;9.194;2023-09-18T12:38:33;23.70;99.90
5476;DHT22;2760;50.000;9.194;2023-09-18T12:41:02;23.40;99.90
5476;DHT22;2760;50.000;9.194;2023-09-18T12:43:34;23.60;99.90
5476;DHT22;2760;50.000;9.194;2023-09-18T12:46:04;23.80;99.90
5476;DHT22;2760;50.000;9.194;2023-09-18T12:48:31;23.90;99.90
5476;DHT22;2760;50.000;9.194;2023-09-18T12:51:05;23.70;99.90
5476;DHT22;2760;50.000;9.194;2023-09-18T12:53:33;23.80;99.90
5476;DHT22;2760;50.000;9.194;2023-09-18T12:56:09;22.30;99.90
5476;DHT22;2760;50.000;9.194;2023-09-18T12:58:36;23.60;99.90
5476;DHT22;2760;50.000;9.194;2023-09-18T13:01:05;23.50;99.90
5476;DHT22;2760;50.000;9.194;2023-09-18T13:03:40;23.50;99.90
5476;DHT22;2760;50.000;9.194;2023-09-18T13:06:10;23.40;99.90
5476;DHT22;2760;50.000;9.194;2023-09-18T13:08:37;23.30;99.90
5476;DHT22;2760;50.000;9.194;2023-09-18T13:11:04;23.40;99.90
5476;DHT22;2760;50.000;9.194;2023-09-18T13:13:33;23.20;99.90
5476;DHT22;2760;50.000;9.194;2023-09-18T13:16:04;23.00;99.90
5476;DHT22;2760;50.000;9.194;2023-09-18T13:18:31;23.30;99.90
5476;DHT22;2760;50.000;9.194;2023-09-18T13:20:58;23.40;99.90
5476;DHT22;2760;50.000;9.194;2023-09-18T13:23:29;23.30;99.90
5476;DHT22;2760;50.000;9.194;2023-09-18T13:26:01;23.40;99.90
5476;DHT22;2760;50.000;9.194;2023-09-18T13:28:28;23.40;99.90
5476;DHT22;2760;50.000;9.194;2023-09-18T13:30:58;23.40;99.90
5476;DHT22;2760;50.000;9.194;2023-09-18T13:33:26;23.50;99.90
5476;DHT22;2760;50.000;9.194;2023-09-18T13:35:53;23.40;99.90
5476;DHT22;2760;50.000;9.194;2023-09-18T13:38:21;23.40;99.90
5476;DHT22;2760;50.000;9.194;2023-09-18T13:40:49;23.40;99.90
5476;DHT22;2760;50.000;9.194;2023-09-18T13:43:16;23.50;99.90
5476;DHT22;2760;50.000;9.194;2023-09-18T13:45:44;23.70;99.90
5476;DHT22;2760;50.000;9.194;2023-09-18T13:48:15;24.00;99.90
5476;DHT22;2760;50.000;9.194;2023-09-18T13:50:42;24.00;99.90
5476;DHT22;2760;50.000;9.194;2023-09-18T13:53:09;24.10;99.90
5476;DHT22;2760;50.000;9.194;2023-09-18T13:55:43;23.90;99.90
5476;DHT22;2760;50.000;9.194;2023-09-18T13:58:11;24.10;99.90
5476;DHT22;2760;50.000;9.194;2023-09-18T14:00:38;24.50;99.90
5476;DHT22;2760;50.000;9.194;2023-09-18T14:03:05;24.70;99.90
5476;DHT22;2760;50.000;9.194;2023-09-18T14:05:34;24.70;99.90
5476;DHT22;2760;50.000;9.194;2023-09-18T14:08:02;24.70;99.90
5476;DHT22;2760;50.000;9.194;2023-09-18T14:10:30;24.60;99.90
5476;DHT22;2760;50.000;9.194;2023-09-18T14:12:57;24.60;99.90
5476;DHT22;2760;50.000;9.194;2023-09-18T14:15:25;24.60;99.90
5476;DHT22;2760;50.000;9.194;2023-09-18T14:17:52;23.70;99.90
5476;DHT22;2760;50.000;9.194;2023-09-18T14:20:20;24.40;99.90
5476;DHT22;2760;50.000;9.194;2023-09-18T14:22:48;24.40;99.90
5476;DHT22;2760;50.000;9.194;2023-09-18T14:25:15;24.30;99.90
5476;DHT22;2760;50.000;9.194;2023-09-18T14:27:43;24.50;99.90
5476;DHT22;2760;50.000;9.194;2023-09-18T14:30:11;24.20;99.90
5476;DHT22;2760;50.000;9.194;2023-09-18T14:32:39;24.30;99.90
5476;DHT22;2760;50.000;9.194;2023-09-18T14:35:06;24.20;99.90
5476;DHT22;2760;50.000;9.194;2023-09-18T14:37:34;24.20;99.90
5476;DHT22;2760;50.000;9.194;2023-09-18T14:40:04;24.50;99.90
5476;DHT22;2760;50.000;9.194;2023-09-18T14:42:33;24.10;99.90
5476;DHT22;2760;50.000;9.194;2023-09-18T14:45:00;24.20;99.90
5476;DHT22;2760;50.000;9.194;2023-09-18T14:47:27;24.10;99.90
5476;DHT22;2760;50.000;9.194;2023-09-18T14:49:55;24.20;99.90
5476;DHT22;2760;50.000;9.194;2023-09-18T14:52:24;24.20;99.90
5476;DHT22;2760;50.000;9.194;2023-09-18T14:54:51;24.10;99.90
5476;DHT22;2760;50.000;9.194;2023-09-18T14:57:22;24.30;99.90
5476;DHT22;2760;50.000;9.194;2023-09-18T14:59:50;24.40;99.90
5476;DHT22;2760;50.000;9.194;2023-09-18T15:02:17;24.50;99.90
5476;DHT22;2760;50.000;9.194;2023-09-18T15:04:44;24.50;99.90
5476;DHT22;2760;50.000;9.194;2023-09-18T15:07:11;24.40;99.90
5476;DHT22;2760;50.000;9.194;2023-09-18T15:09:39;24.20;99.90
5476;DHT22;2760;50.000;9.194;2023-09-18T15:12:08;24.20;99.90
5476;DHT22;2760;50.000;9.194;2023-09-18T15:14:38;24.20;99.90
5476;DHT22;2760;50.000;9.194;2023-09-18T15:17:05;24.00;99.90
5476;DHT22;2760;50.000;9.194;2023-09-18T15:19:33;24.10;99.90
5476;DHT22;2760;50.000;9.194;2023-09-18T15:22:02;24.20;99.90
5476;DHT22;2760;50.000;9.194;2023-09-18T15:24:30;24.10;99.90
5476;DHT22;2760;50.000;9.194;2023-09-18T15:26:57;24.20;99.90
5476;DHT22;2760;50.000;9.194;2023-09-18T15:29:24;24.00;99.90
5476;DHT22;2760;50.000;9.194;2023-09-18T15:31:55;23.90;99.90
5476;DHT22;2760;50.000;9.194;2023-09-18T15:34:23;23.90;99.90
5476;DHT22;2760;50.000;9.194;2023-09-18T15:36:50;23.90;99.90
5476;DHT22;2760;50.000;9.194;2023-09-18T15:39:18;22.80;99.90
5476;DHT22;2760;50.000;9.194;2023-09-18T15:41:49;24.00;99.90
5476;DHT22;2760;50.000;9.194;2023-09-18T15:44:17;24.00;99.90
5476;DHT22;2760;50.000;9.194;2023-09-18T15:46:44;24.00;99.90
5476;DHT22;2760;50.000;9.194;2023-09-18T15:49:13;23.90;99.90
5476;DHT22;2760;50.000;9.194;2023-09-18T15:51:40;24.00;99.90
5476;DHT22;2760;50.000;9.194;2023-09-18T15:54:07;24.00;99.90
5476;DHT22;2760;50.000;9.194;2023-09-18T15:56:34;24.00;99.90
5476;DHT22;2760;50.000;9.194;2023-09-18T15:59:02;23.90;99.90
5476;DHT22;2760;50.000;9.194;2023-09-18T16:01:30;23.90;99.90
5476;DHT22;2760;50.000;9.194;2023-09-18T16:03:57;23.90;99.90
5476;DHT22;2760;50.000;9.194;2023-09-18T16:06:25;23.80;99.90
5476;DHT22;2760;50.000;9.194;2023-09-18T16:08:52;23.70;99.90
5476;DHT22;2760;50.000;9.194;2023-09-18T16:11:22;23.60;99.90
5476;DHT22;2760;50.000;9.194;2023-09-18T16:13:49;23.70;99.90